Time;durP1;ratioP1;P1;durP2;ratioP2;P2;SDS_P1;SDS_P2;PMS_P1;PMS_P2;Temp;Humidity;BMP_temperature;BMP_pressure;BME280_temperature;BME280_humidity;BME280_pressure;Samples;Min_cycle;Max_cycle;Signal;HPM_P1;HPM_P2
2023/01/14 00:01:28;;;;;;;8.55;3.85;;;;;;;8.97;66.92;100257.66;4475555;31;34012;-84
2023/01/14 00:03:57;;;;;;;1.95;1.27;;;;;;;9.03;66.83;100254.88;4472192;31;33952;-85
2023/01/14 00:06:27;;;;;;;6.25;3.83;;;;;;;8.94;67.00;100260.41;4473297;31;32522;-85
2023/01/14 00:09:04;;;;;;;4.87;2.58;;;;;;;9.00;66.93;100264.63;4468725;31;33282;-85
2023/01/14 00:11:51;;;;;;;4.37;2.12;;;;;;;8.97;67.06;100260.28;4464497;31;32599;-85
2023/01/14 00:14:24;;;;;;;1.90;1.80;;;;;;;9.08;66.41;100260.00;4466179;31;32530;-85
2023/01/14 00:16:53;;;;;;;3.05;2.85;;;;;;;9.11;66.52;100267.78;4466293;31;103616;-85
2023/01/14 00:19:22;;;;;;;1.87;1.77;;;;;;;9.03;66.60;100265.41;4476336;31;33009;-84
2023/01/14 00:21:50;;;;;;;2.85;2.62;;;;;;;9.27;65.38;100265.56;4470904;31;34304;-84
2023/01/14 00:24:20;;;;;;;2.80;2.42;;;;;;;9.37;64.86;100253.81;4475727;31;32002;-84
2023/01/14 00:26:52;;;;;;;4.87;3.17;;;;;;;9.40;64.39;100256.34;4473807;31;33282;-84
2023/01/14 00:29:24;;;;;;;3.08;2.87;;;;;;;9.11;65.21;100259.88;4461769;31;32565;-84
2023/01/14 00:31:59;;;;;;;4.20;3.90;;;;;;;8.74;66.09;100255.72;4460676;31;33109;-84
2023/01/14 00:34:36;;;;;;;1.23;1.12;;;;;;;8.74;66.32;100258.38;4471153;31;33521;-84
2023/01/14 00:37:04;;;;;;;1.95;1.85;;;;;;;8.71;66.49;100259.31;4457671;31;33586;-86
2023/01/14 00:39:34;;;;;;;4.57;2.97;;;;;;;8.67;66.55;100251.53;4465134;31;32179;-84
2023/01/14 00:42:02;;;;;;;6.62;3.17;;;;;;;8.65;66.81;100270.00;4487064;31;33795;-85
2023/01/14 00:44:30;;;;;;;1.80;1.60;;;;;;;8.73;66.59;100272.41;4463594;31;31920;-85
2023/01/14 00:46:59;;;;;;;2.15;1.95;;;;;;;8.80;66.44;100268.72;4472076;31;34568;-84
2023/01/14 00:49:26;;;;;;;2.60;2.42;;;;;;;8.78;66.52;100265.25;4472639;31;33062;-85
2023/01/14 00:51:54;;;;;;;2.37;2.25;;;;;;;8.86;66.40;100263.25;4464927;31;33054;-85
2023/01/14 00:54:23;;;;;;;1.85;1.75;;;;;;;8.88;66.31;100268.50;4465533;31;33188;-85
2023/01/14 00:56:50;;;;;;;6.37;3.05;;;;;;;8.80;66.41;100268.72;4471799;31;32978;-85
2023/01/14 00:59:21;;;;;;;1.55;1.42;;;;;;;8.81;66.38;100269.56;4472418;31;34669;-85
2023/01/14 01:01:55;;;;;;;6.32;3.03;;;;;;;8.86;66.30;100268.53;4481214;31;33497;-85
2023/01/14 01:04:24;;;;;;;3.20;2.95;;;;;;;8.87;66.22;100274.66;4485546;31;34359;-85
2023/01/14 01:06:53;;;;;;;3.80;2.87;;;;;;;8.81;66.26;100265.16;4484302;31;33339;-85
2023/01/14 01:09:21;;;;;;;1.67;1.58;;;;;;;8.75;66.47;100261.84;4482404;31;34532;-85
2023/01/14 01:11:54;;;;;;;6.78;3.95;;;;;;;8.80;66.31;100273.12;4475822;31;33318;-85
2023/01/14 01:14:23;;;;;;;3.65;3.45;;;;;;;8.82;66.33;100266.03;4483022;31;34153;-85
2023/01/14 01:16:51;;;;;;;3.97;2.30;;;;;;;8.86;66.00;100254.50;4485112;31;33419;-85
2023/01/14 01:19:20;;;;;;;2.37;2.28;;;;;;;8.79;66.23;100264.34;4448174;31;33927;-85
2023/01/14 01:21:47;;;;;;;2.87;2.62;;;;;;;8.83;65.89;100266.00;4483192;31;33938;-85
2023/01/14 01:24:15;;;;;;;2.08;1.98;;;;;;;8.87;65.89;100264.13;4471339;31;33772;-86
2023/01/14 01:26:45;;;;;;;2.50;2.30;;;;;;;8.75;66.21;100267.97;4460361;31;32645;-85
2023/01/14 01:29:15;;;;;;;5.45;4.00;;;;;;;8.66;66.57;100273.50;4470101;31;33581;-85
2023/01/14 01:31:43;;;;;;;4.75;4.37;;;;;;;8.81;66.07;100270.44;4484407;31;32543;-85
2023/01/14 01:34:12;;;;;;;4.62;2.60;;;;;;;8.83;66.04;100263.38;4482236;31;34280;-85
2023/01/14 01:36:40;;;;;;;3.67;3.22;;;;;;;8.83;66.00;100273.91;4479997;31;32450;-85
2023/01/14 01:39:08;;;;;;;3.03;2.83;;;;;;;8.85;65.96;100265.94;4466136;31;33164;-85
2023/01/14 01:41:35;;;;;;;3.20;2.90;;;;;;;8.63;66.39;100261.28;4456147;31;33019;-85
2023/01/14 01:44:03;;;;;;;4.40;2.10;;;;;;;8.77;65.76;100268.78;4481851;31;33580;-84
2023/01/14 01:46:32;;;;;;;1.02;0.98;;;;;;;8.70;66.24;100272.53;4491249;31;33456;-83
2023/01/14 01:49:15;;;;;;;4.57;2.35;;;;;;;8.57;66.42;100273.75;4472715;31;32460;-84
2023/01/14 01:51:50;;;;;;;1.77;1.67;;;;;;;8.91;65.05;100269.25;4469562;31;33756;-85
2023/01/14 01:54:20;;;;;;;1.55;1.50;;;;;;;8.74;65.71;100268.91;4483278;31;34730;-85
2023/01/14 01:56:49;;;;;;;3.72;2.83;;;;;;;8.58;66.24;100270.22;4462997;31;33980;-85
2023/01/14 01:59:23;;;;;;;1.67;1.45;;;;;;;8.48;66.24;100266.12;4472409;31;33556;-86
2023/01/14 02:01:54;;;;;;;2.50;1.73;;;;;;;8.46;66.67;100274.94;4481920;31;33469;-86
2023/01/14 02:04:23;;;;;;;2.50;2.30;;;;;;;8.67;66.01;100269.97;4477002;31;33946;-86
2023/01/14 02:06:52;;;;;;;2.42;1.73;;;;;;;8.64;65.90;100256.88;4470313;31;33053;-86
2023/01/14 02:09:20;;;;;;;2.17;2.08;;;;;;;8.53;66.31;100280.00;4468546;31;32449;-86
2023/01/14 02:12:22;;;;;;;3.42;3.12;;;;;;;8.46;66.45;100271.44;4471880;31;32846;-84
2023/01/14 02:15:20;;;;;;;2.85;2.42;;;;;;;8.50;66.33;100280.97;4468197;31;33528;-84
2023/01/14 02:17:58;;;;;;;5.68;2.45;;;;;;;8.54;66.29;100284.37;4480407;31;34034;-85
2023/01/14 02:20:35;;;;;;;4.15;2.70;;;;;;;8.42;66.51;100275.06;4484410;31;33690;-85
2023/01/14 02:23:13;;;;;;;2.25;2.00;;;;;;;8.45;66.47;100274.94;4485502;31;33889;-85
2023/01/14 02:26:38;;;;;;;2.05;1.58;;;;;;;8.64;65.75;100283.19;4488043;31;33295;-85
2023/01/14 02:29:25;;;;;;;2.67;2.47;;;;;;;8.51;66.18;100279.22;4394552;32;31822;-84
2023/01/14 02:32:11;;;;;;;2.25;2.05;;;;;;;8.51;66.32;100276.56;4421007;32;32635;-85
2023/01/14 02:34:46;;;;;;;1.35;1.30;;;;;;;8.50;66.15;100280.09;4471938;31;33493;-85
2023/01/14 02:37:30;;;;;;;1.40;1.40;;;;;;;8.40;66.53;100277.75;4494359;31;34635;-84
2023/01/14 02:40:22;;;;;;;0.82;0.82;;;;;;;8.23;66.78;100277.28;4467532;31;32731;-84
2023/01/14 02:46:17;;;;;;;;;;;;;;;8.41;66.46;100287.34;4473891;31;33534;-84
2023/01/14 02:48:51;;;;;;;1.35;1.05;;;;;;;8.28;66.71;100285.06;4492904;31;35151;-84
2023/01/14 02:51:21;;;;;;;1.35;1.25;;;;;;;8.05;67.30;100283.03;4472422;31;33679;-84
2023/01/14 02:53:51;;;;;;;4.25;3.20;;;;;;;8.17;67.27;100294.09;4472114;31;33541;-84
2023/01/14 02:56:20;;;;;;;2.62;2.22;;;;;;;8.30;66.46;100299.03;4485513;31;33275;-84
2023/01/14 02:59:01;;;;;;;5.22;3.35;;;;;;;8.27;67.01;100310.50;4459377;31;33044;-84
2023/01/14 03:01:39;;;;;;;2.62;1.80;;;;;;;8.25;66.93;100308.81;4484510;31;33795;-85
2023/01/14 03:04:36;;;;;;;5.50;2.83;;;;;;;8.21;67.16;100308.91;4486745;31;33999;-85
2023/01/14 03:07:17;;;;;;;1.95;1.85;;;;;;;8.21;67.13;100305.37;4489956;31;33608;-84
2023/01/14 03:10:33;;;;;;;2.05;1.95;;;;;;;8.29;67.02;100302.56;4492817;31;33787;-84
2023/01/14 03:13:04;;;;;;;2.92;2.47;;;;;;;8.28;67.02;100309.59;4438462;32;32593;-85
2023/01/14 03:15:35;;;;;;;2.05;1.95;;;;;;;8.29;66.88;100313.94;4461365;31;32171;-85
2023/01/14 03:18:30;;;;;;;1.33;1.33;;;;;;;8.27;67.17;100309.62;4485960;31;33933;-85
2023/01/14 03:21:08;;;;;;;0.28;0.28;;;;;;;8.12;67.32;100311.75;4482907;31;33913;-84
2023/01/14 03:23:42;;;;;;;7.30;1.55;;;;;;;8.22;67.16;100312.38;4472119;31;31730;-84
2023/01/14 03:26:11;;;;;;;2.12;1.70;;;;;;;8.18;66.87;100316.00;4474788;31;32809;-84
2023/01/14 03:28:46;;;;;;;4.97;2.72;;;;;;;8.20;66.50;100311.56;4487806;31;33889;-84
2023/01/14 03:31:20;;;;;;;2.08;1.98;;;;;;;8.11;66.78;100319.66;4465486;31;35120;-84
2023/01/14 03:33:53;;;;;;;1.27;1.27;;;;;;;8.22;66.44;100320.28;4465091;31;33536;-84
2023/01/14 03:36:22;;;;;;;1.02;1.02;;;;;;;8.03;66.52;100330.41;4488634;31;34208;-84
2023/01/14 03:39:02;;;;;;;1.37;1.33;;;;;;;8.09;66.68;100327.63;4473278;31;32747;-84
2023/01/14 03:44:23;;;;;;;1.65;1.55;;;;;;;8.09;66.33;100326.75;4476286;31;33043;-86
2023/01/14 03:46:52;;;;;;;2.37;2.25;;;;;;;7.87;66.57;100319.38;4471919;31;32281;-85
2023/01/14 03:49:22;;;;;;;1.15;1.10;;;;;;;7.83;67.04;100325.63;4471425;31;33984;-85
2023/01/14 03:51:53;;;;;;;4.25;2.37;;;;;;;7.90;66.53;100327.19;4472647;31;33216;-85
2023/01/14 03:54:25;;;;;;;3.03;2.50;;;;;;;7.97;66.43;100335.78;4486537;31;33329;-85
2023/01/14 03:57:12;;;;;;;3.83;2.08;;;;;;;7.84;66.63;100340.50;4471492;31;33294;-85
2023/01/14 04:00:02;;;;;;;2.17;2.00;;;;;;;7.83;66.91;100330.91;4463809;31;32899;-85
2023/01/14 04:02:39;;;;;;;0.75;0.73;;;;;;;7.91;66.62;100334.19;4480542;31;33242;-85
2023/01/14 04:05:09;;;;;;;1.35;1.23;;;;;;;7.90;66.33;100332.47;4485291;31;33109;-85
2023/01/14 04:07:37;;;;;;;1.87;1.77;;;;;;;7.89;66.19;100325.47;4460084;31;32371;-85
2023/01/14 04:10:05;;;;;;;1.60;1.50;;;;;;;7.86;66.51;100329.94;4486061;31;33700;-85
2023/01/14 04:15:20;;;;;;;1.73;1.62;;;;;;;7.86;66.31;100333.44;4480972;31;33589;-85
2023/01/14 04:15:22;;;;;;;0.90;0.90;;;;;;;7.93;65.80;100336.81;4486140;31;33413;-85
2023/01/14 04:17:51;;;;;;;3.28;3.05;;;;;;;7.73;66.63;100339.88;4451820;31;34216;-85
2023/01/14 04:20:19;;;;;;;1.90;1.80;;;;;;;7.78;66.53;100343.25;4478076;31;34252;-85
2023/01/14 04:22:47;;;;;;;2.67;2.45;;;;;;;7.74;66.48;100339.00;4484752;31;34527;-86
2023/01/14 04:25:15;;;;;;;2.25;0.95;;;;;;;7.80;66.47;100349.37;4479062;31;34591;-84
2023/01/14 04:27:43;;;;;;;5.78;2.92;;;;;;;7.76;66.53;100358.22;4469345;31;33535;-84
2023/01/14 04:30:14;;;;;;;1.25;1.20;;;;;;;7.73;66.64;100350.38;4473704;31;32661;-84
2023/01/14 04:32:43;;;;;;;2.37;2.17;;;;;;;7.78;66.31;100347.66;4478539;31;33483;-85
2023/01/14 04:35:11;;;;;;;1.23;1.12;;;;;;;7.72;66.47;100351.28;4474014;31;33195;-86
2023/01/14 04:37:38;;;;;;;7.25;1.60;;;;;;;7.69;66.51;100356.63;4484483;31;34606;-86
2023/01/14 04:40:09;;;;;;;3.67;3.22;;;;;;;7.88;65.57;100357.94;4469855;31;33933;-86
2023/01/14 04:42:37;;;;;;;1.58;1.48;;;;;;;7.72;66.08;100364.44;4474175;31;34469;-85
2023/01/14 04:45:05;;;;;;;2.22;2.08;;;;;;;7.56;66.28;100368.31;4463564;31;32223;-86
2023/01/14 04:47:34;;;;;;;4.87;2.05;;;;;;;7.72;65.62;100369.69;4467745;31;34482;-86
2023/01/14 04:50:30;;;;;;;1.55;1.45;;;;;;;7.53;66.05;100373.63;4473104;31;34392;-85
2023/01/14 04:52:49;;;;;;;1.55;1.45;;;;;;;7.49;66.14;100361.47;4485795;31;33649;-86
2023/01/14 04:55:17;;;;;;;2.20;2.10;;;;;;;7.50;66.39;100378.94;4472870;31;31907;-86
2023/01/14 04:57:46;;;;;;;2.05;1.87;;;;;;;7.49;66.10;100382.47;4477970;31;33803;-86
2023/01/14 05:00:15;;;;;;;2.15;1.98;;;;;;;7.40;66.44;100384.41;4457624;31;33732;-86
2023/01/14 05:02:46;;;;;;;1.05;1.05;;;;;;;7.46;66.20;100388.69;4466733;31;33182;-86
2023/01/14 05:05:15;;;;;;;4.35;0.88;;;;;;;7.50;66.35;100386.84;4454317;31;32452;-86
2023/01/14 05:07:42;;;;;;;1.50;1.40;;;;;;;7.47;66.32;100387.78;4486083;31;33879;-86
2023/01/14 05:10:10;;;;;;;0.75;0.75;;;;;;;7.41;66.25;100383.53;4483542;31;33535;-86
2023/01/14 05:12:55;;;;;;;3.50;3.10;;;;;;;7.32;66.27;100375.84;4477058;31;33988;-87
2023/01/14 05:15:30;;;;;;;0.75;0.75;;;;;;;7.61;65.26;100372.56;4479092;31;33719;-87
2023/01/14 05:18:00;;;;;;;0.60;0.60;;;;;;;7.38;65.92;100380.97;4457907;31;34014;-86
2023/01/14 05:20:28;;;;;;;6.32;2.40;;;;;;;7.32;66.18;100385.50;4472696;31;33709;-86
2023/01/14 05:23:02;;;;;;;1.10;1.10;;;;;;;7.10;66.72;100388.53;4473281;31;32622;-85
2023/01/14 05:25:31;;;;;;;1.75;1.20;;;;;;;7.48;65.15;100383.37;4474644;31;32729;-86
2023/01/14 05:28:01;;;;;;;0.40;0.40;;;;;;;7.38;65.55;100388.84;4485794;31;33576;-88
2023/01/14 05:30:31;;;;;;;3.35;3.10;;;;;;;7.12;66.17;100388.50;4463753;31;32721;-88
2023/01/14 05:33:01;;;;;;;3.40;1.50;;;;;;;7.12;66.23;100383.25;4467987;31;33020;-87
2023/01/14 05:35:32;;;;;;;1.65;1.30;;;;;;;7.16;66.26;100390.16;4471231;31;33592;-85
2023/01/14 05:38:05;;;;;;;2.58;0.70;;;;;;;7.04;66.60;100403.56;4473574;31;32880;-85
2023/01/14 05:40:34;;;;;;;1.08;1.08;;;;;;;7.16;66.32;100401.53;4456752;31;34297;-85
2023/01/14 05:45:51;;;;;;;1.42;1.33;;;;;;;7.20;65.69;100399.72;4486368;31;33826;-86
2023/01/14 05:48:24;;;;;;;6.60;3.75;;;;;;;7.01;66.09;100395.75;4476830;31;33247;-86
2023/01/14 05:50:55;;;;;;;1.12;1.08;;;;;;;6.79;66.46;100406.66;4461090;31;33401;-86
2023/01/14 05:53:26;;;;;;;0.55;0.55;;;;;;;6.86;66.55;100407.41;4471511;31;33356;-84
2023/01/14 05:55:59;;;;;;;1.65;1.55;;;;;;;6.68;66.80;100413.84;4471739;31;33449;-84
2023/01/14 05:58:27;;;;;;;1.08;0.77;;;;;;;6.86;66.16;100397.75;4465459;31;34145;-84
2023/01/14 06:06:48;;;;;;;1.80;1.25;;;;;;;6.86;65.64;100416.13;4467505;31;33598;-84
2023/01/14 06:09:22;;;;;;;2.08;1.67;;;;;;;7.01;64.81;100416.75;4456496;31;34073;-84
2023/01/14 06:12:02;;;;;;;0.47;0.47;;;;;;;6.99;64.33;100414.16;4482507;31;33875;-84
2023/01/14 06:14:31;;;;;;;2.50;2.28;;;;;;;6.84;64.81;100430.22;4470209;31;35136;-84
2023/01/14 06:17:08;;;;;;;1.23;1.12;;;;;;;6.63;65.24;100436.69;4459027;31;33696;-84
2023/01/14 06:19:40;;;;;;;1.92;1.83;;;;;;;6.68;65.13;100440.09;4471408;31;33741;-85
2023/01/14 06:22:08;;;;;;;1.45;1.35;;;;;;;6.60;65.13;100445.50;4471383;31;34332;-85
2023/01/14 06:24:36;;;;;;;0.45;0.45;;;;;;;6.54;65.07;100434.22;4469654;31;32593;-85
2023/01/14 06:27:07;;;;;;;1.73;1.62;;;;;;;6.58;64.90;100438.53;4469127;31;32817;-84
2023/01/14 06:29:35;;;;;;;0.40;0.40;;;;;;;6.61;64.81;100433.22;4484680;31;33663;-85
2023/01/14 06:32:03;;;;;;;1.37;1.25;;;;;;;6.56;64.94;100435.06;4479937;31;34750;-85
2023/01/14 06:34:34;;;;;;;0.82;0.82;;;;;;;6.65;64.64;100440.16;4461879;31;33677;-85
2023/01/14 06:37:04;;;;;;;0.30;0.30;;;;;;;6.54;64.82;100439.47;4479339;31;32889;-85
2023/01/14 06:39:36;;;;;;;1.52;1.45;;;;;;;6.54;64.70;100439.47;4452983;31;31958;-84
2023/01/14 06:42:13;;;;;;;0.98;0.98;;;;;;;6.47;64.77;100435.22;4471548;31;34460;-84
2023/01/14 06:44:49;;;;;;;4.47;2.10;;;;;;;6.37;64.96;100439.75;4480921;31;32428;-84
2023/01/14 06:47:18;;;;;;;0.68;0.68;;;;;;;6.31;64.79;100443.31;4487793;31;34152;-84
2023/01/14 06:49:48;;;;;;;1.58;1.48;;;;;;;6.31;64.79;100451.19;4487530;31;33636;-84
2023/01/14 06:52:18;;;;;;;1.60;1.55;;;;;;;6.20;64.77;100453.13;4466037;31;34936;-85
2023/01/14 06:54:52;;;;;;;0.50;0.50;;;;;;;6.48;63.84;100443.06;4460423;31;32527;-85
2023/01/14 06:57:24;;;;;;;0.53;0.53;;;;;;;6.16;63.87;100448.81;4470881;31;33646;-85
2023/01/14 06:59:55;;;;;;;3.50;1.55;;;;;;;6.19;64.17;100451.41;4453440;31;33253;-85
2023/01/14 07:02:23;;;;;;;1.10;1.10;;;;;;;6.19;64.12;100453.16;4468303;31;34125;-85
2023/01/14 07:04:53;;;;;;;2.72;2.53;;;;;;;6.01;64.45;100460.41;4477753;31;33022;-85
2023/01/14 07:07:22;;;;;;;1.60;1.60;;;;;;;5.94;64.86;100461.41;4465822;31;33045;-84
2023/01/14 07:09:51;;;;;;;2.00;1.90;;;;;;;6.01;64.61;100468.25;4467184;31;33000;-85
2023/01/14 07:12:23;;;;;;;16.55;5.43;;;;;;;5.94;64.89;100461.41;4458460;31;32856;-84
2023/01/14 07:14:54;;;;;;;2.40;2.28;;;;;;;5.91;65.01;100466.63;4485785;31;34313;-86
2023/01/14 07:17:33;;;;;;;2.17;2.05;;;;;;;6.02;64.90;100477.00;4471884;31;34175;-86
2023/01/14 07:20:07;;;;;;;2.97;2.72;;;;;;;6.00;64.94;100476.16;4487557;31;34550;-84
2023/01/14 07:22:49;;;;;;;8.05;4.78;;;;;;;6.04;65.00;100483.09;4467623;31;32784;-84
2023/01/14 07:25:21;;;;;;;5.22;1.95;;;;;;;6.13;64.59;100482.97;4479093;31;31963;-85
2023/01/14 07:27:52;;;;;;;0.70;0.70;;;;;;;5.94;65.16;100487.59;4483212;31;33452;-84
2023/01/14 07:30:21;;;;;;;2.95;2.75;;;;;;;5.85;65.73;100491.19;4469502;31;33791;-85
2023/01/14 07:32:51;;;;;;;0.93;0.90;;;;;;;5.88;65.56;100483.25;4476665;31;33674;-84
2023/01/14 07:35:29;;;;;;;4.62;3.87;;;;;;;5.95;65.62;100483.22;4460383;31;33561;-84
2023/01/14 07:37:59;;;;;;;2.67;2.15;;;;;;;6.41;63.61;100475.53;4468049;31;31994;-84
2023/01/14 07:43:08;;;;;;;1.33;1.23;;;;;;;6.17;64.13;100484.63;4468000;31;33131;-83
2023/01/14 07:45:41;;;;;;;1.27;1.17;;;;;;;5.82;65.52;100493.81;4471343;31;31654;-84
2023/01/14 07:48:12;;;;;;;5.18;4.47;;;;;;;6.01;65.03;100485.75;4476208;31;33658;-84
2023/01/14 07:50:44;;;;;;;0.88;0.88;;;;;;;5.74;65.66;100485.19;4481511;31;34611;-85
2023/01/14 07:53:24;;;;;;;1.80;1.65;;;;;;;5.83;65.62;100482.44;4484890;31;33979;-85
2023/01/14 07:55:55;;;;;;;1.42;1.42;;;;;;;5.78;65.88;100480.78;4462388;31;33622;-84
2023/01/14 07:58:35;;;;;;;4.28;2.97;;;;;;;5.96;65.95;100492.81;4462170;31;32213;-85
2023/01/14 08:01:13;;;;;;;2.33;1.65;;;;;;;6.26;65.04;100492.34;4455670;31;32567;-85
2023/01/14 08:03:48;;;;;;;2.92;2.72;;;;;;;6.13;65.55;100491.69;4469609;31;34721;-84
2023/01/14 08:06:17;;;;;;;1.98;1.87;;;;;;;6.24;65.73;100495.91;4468822;31;33555;-85
2023/01/14 08:08:58;;;;;;;0.35;0.35;;;;;;;5.97;67.17;100492.78;4477950;31;30857;-85
2023/01/14 08:11:26;;;;;;;2.33;2.15;;;;;;;6.14;67.18;100490.81;4483356;31;32013;-87
2023/01/14 08:13:57;;;;;;;1.95;1.65;;;;;;;6.25;67.40;100493.25;4457329;31;33422;-87
2023/01/14 08:16:30;;;;;;;0.30;0.30;;;;;;;6.31;68.65;100494.91;4477648;31;33836;-87
2023/01/14 08:19:01;;;;;;;0.90;0.90;;;;;;;6.57;68.19;100494.53;4469939;31;33410;-87
2023/01/14 08:21:34;;;;;;;0.65;0.65;;;;;;;6.68;68.70;100492.56;4476767;31;33354;-87
2023/01/14 08:24:06;;;;;;;0.28;0.28;;;;;;;7.00;68.60;100494.66;4466236;31;33639;-86
2023/01/14 08:26:35;;;;;;;0.90;0.90;;;;;;;7.27;68.35;100506.41;4454107;31;30520;-86
2023/01/14 08:29:04;;;;;;;0.40;0.40;;;;;;;7.16;69.54;100503.97;4464892;31;31378;-87
2023/01/14 08:31:40;;;;;;;0.08;0.08;;;;;;;7.41;69.44;100506.16;4469602;31;32918;-86
2023/01/14 08:34:13;;;;;;;;;;;;;;;7.63;69.08;100507.44;4467640;31;32729;-87
2023/01/14 08:36:48;;;;;;;0.73;0.73;;;;;;;7.62;69.38;100502.22;4455396;31;33029;-88
2023/01/14 08:39:16;;;;;;;0.77;0.77;;;;;;;7.79;69.44;100502.75;4470336;31;32224;-87
2023/01/14 08:41:47;;;;;;;0.22;0.22;;;;;;;7.92;69.53;100504.19;4460342;31;34076;-87
2023/01/14 08:44:20;;;;;;;0.47;0.47;;;;;;;8.02;69.24;100506.62;4452893;31;33142;-87
2023/01/14 08:46:50;;;;;;;1.05;0.28;;;;;;;8.16;69.05;100517.72;4453012;31;33266;-88
2023/01/14 08:49:19;;;;;;;0.82;0.47;;;;;;;8.20;68.99;100512.34;4468351;31;32978;-87
2023/01/14 08:51:53;;;;;;;2.55;2.40;;;;;;;8.11;69.31;100514.31;4481396;31;34604;-88
2023/01/14 08:54:28;;;;;;;1.48;1.35;;;;;;;8.19;69.44;100518.50;4479035;31;34765;-88
2023/01/14 08:56:57;;;;;;;1.50;1.40;;;;;;;8.55;68.69;100525.66;4466405;31;33710;-88
2023/01/14 08:59:30;;;;;;;0.30;0.30;;;;;;;8.52;68.92;100517.81;4468320;31;32304;-88
2023/01/14 09:02:04;;;;;;;1.15;1.08;;;;;;;8.77;68.65;100525.97;4483427;31;31071;-88
2023/01/14 09:04:40;;;;;;;0.45;0.45;;;;;;;8.79;68.24;100517.12;4481671;31;33691;-88
2023/01/14 09:18:42;;;;;;;0.20;0.20;;;;;;;9.34;66.87;100531.50;4481065;31;31956;-88
2023/01/14 09:21:24;;;;;;;0.52;0.52;;;;;;;9.86;64.92;100527.41;4471821;31;34152;-88
2023/01/14 09:23:57;;;;;;;2.15;2.05;;;;;;;9.83;64.91;100524.00;4470252;31;33021;-89
2023/01/14 09:26:27;;;;;;;0.85;0.85;;;;;;;10.29;62.93;100522.66;4483335;31;33625;-89
2023/01/14 09:28:55;;;;;;;1.30;1.20;;;;;;;10.41;62.97;100525.78;4466027;31;31719;-88
2023/01/14 09:31:25;;;;;;;0.47;0.47;;;;;;;10.10;63.94;100517.88;4465785;31;34231;-88
2023/01/14 09:33:55;;;;;;;0.43;0.43;;;;;;;10.32;62.58;100519.91;4455006;31;32632;-89
2023/01/14 09:36:23;;;;;;;1.67;1.58;;;;;;;10.64;61.42;100521.53;4456247;31;33489;-88
2023/01/14 09:38:54;;;;;;;1.10;0.90;;;;;;;10.76;60.91;100519.34;4477797;31;33829;-89
2023/01/14 09:41:32;;;;;;;0.77;0.77;;;;;;;10.56;61.89;100513.00;4479713;31;34092;-88
2023/01/14 09:44:11;;;;;;;1.45;0.40;;;;;;;10.65;61.70;100512.69;4469407;31;33769;-88
2023/01/14 09:46:40;;;;;;;0.47;0.47;;;;;;;11.09;59.22;100505.06;4479994;31;33419;-87
2023/01/14 09:49:12;;;;;;;0.20;0.20;;;;;;;10.97;59.25;100501.94;4456080;31;32763;-89
2023/01/14 09:51:59;;;;;;;0.75;0.75;;;;;;;10.99;58.31;100509.78;4467900;31;33346;-88
2023/01/14 09:54:49;;;;;;;1.08;0.62;;;;;;;10.86;59.51;100511.97;4469612;31;34153;-89
2023/01/14 09:57:25;;;;;;;0.00;0.00;;;;;;;11.05;58.42;100508.72;4476460;31;32882;-88
2023/01/14 09:59:57;;;;;;;0.30;0.30;;;;;;;10.70;60.11;100510.78;4455758;31;33496;-87
2023/01/14 10:02:44;;;;;;;0.30;0.30;;;;;;;10.22;61.88;100511.41;4480923;31;33031;-87
2023/01/14 10:05:32;;;;;;;0.20;0.20;;;;;;;10.30;62.76;100505.88;4468100;31;33094;-87
2023/01/14 10:08:13;;;;;;;0.85;0.85;;;;;;;10.96;59.56;100513.38;4466624;31;34647;-87
2023/01/14 10:10:44;;;;;;;1.35;0.98;;;;;;;11.12;58.01;100508.47;4469200;31;33709;-86
2023/01/14 10:13:20;;;;;;;0.10;0.10;;;;;;;10.72;60.66;100516.84;4478424;31;31809;-86
2023/01/14 10:16:09;;;;;;;0.40;0.40;;;;;;;11.15;58.17;100502.19;4456719;31;33310;-87
2023/01/14 10:18:50;;;;;;;0.30;0.30;;;;;;;11.07;58.69;100498.97;4462601;31;33438;-87
2023/01/14 10:21:20;;;;;;;0.10;0.10;;;;;;;10.84;59.30;100503.25;4483317;31;32368;-86
2023/01/14 10:23:51;;;;;;;1.08;0.98;;;;;;;10.78;60.25;100506.13;4477053;31;32552;-87
2023/01/14 10:26:23;;;;;;;0.85;0.70;;;;;;;10.67;60.47;100498.50;4456461;31;32354;-87
2023/01/14 10:28:53;;;;;;;;;;;;;;;10.72;60.25;100498.37;4467814;31;32974;-87
2023/01/14 10:31:31;;;;;;;0.10;0.10;;;;;;;10.75;60.19;100503.56;4479573;31;33798;-87
2023/01/14 10:34:00;;;;;;;2.65;1.15;;;;;;;10.84;59.53;100497.09;4480191;31;33709;-88
2023/01/14 10:36:30;;;;;;;0.30;0.30;;;;;;;11.17;58.63;100495.09;4469158;31;33420;-87
2023/01/14 10:39:07;;;;;;;1.02;0.73;;;;;;;11.28;58.26;100495.56;4483009;31;33733;-87
2023/01/14 10:41:50;;;;;;;1.17;1.02;;;;;;;11.14;58.71;100492.53;4456646;31;32899;-87
2023/01/14 10:44:30;;;;;;;0.40;0.40;;;;;;;11.15;58.67;100488.97;4477684;31;32665;-87
2023/01/14 10:47:17;;;;;;;0.50;0.50;;;;;;;11.37;56.75;100489.94;4462725;31;34651;-87
2023/01/14 10:49:57;;;;;;;0.90;0.90;;;;;;;11.20;57.23;100489.69;4471296;31;33791;-87
2023/01/14 10:52:32;;;;;;;3.20;0.93;;;;;;;11.01;59.18;100485.06;4484635;31;33321;-87
2023/01/14 10:55:21;;;;;;;0.32;0.32;;;;;;;11.41;56.41;100496.84;4472866;31;31962;-87
2023/01/14 10:58:07;;;;;;;0.05;0.05;;;;;;;10.99;57.93;100492.16;4483221;31;33227;-88
2023/01/14 11:00:39;;;;;;;0.32;0.32;;;;;;;11.14;56.99;100490.75;4454108;31;33469;-87
2023/01/14 11:03:23;;;;;;;1.25;1.17;;;;;;;11.22;56.96;100482.56;4471574;31;35327;-87
2023/01/14 11:05:55;;;;;;;0.90;0.70;;;;;;;11.25;56.62;100482.44;4482986;31;33422;-88
2023/01/14 11:08:40;;;;;;;0.22;0.22;;;;;;;11.03;57.63;100485.00;4471742;31;34626;-87
2023/01/14 11:11:13;;;;;;;0.93;0.93;;;;;;;11.00;57.92;100485.94;4477027;31;33841;-87
2023/01/14 11:13:50;;;;;;;0.73;0.73;;;;;;;10.83;58.87;100483.03;4486069;31;33880;-87
2023/01/14 11:16:27;;;;;;;0.35;0.35;;;;;;;11.13;56.86;100478.47;4485856;31;32750;-87
2023/01/14 11:19:20;;;;;;;0.43;0.43;;;;;;;11.41;56.80;100470.41;4491722;31;34527;-88
2023/01/14 11:21:57;;;;;;;0.68;0.68;;;;;;;11.34;57.69;100463.59;4480982;31;33350;-88
2023/01/14 11:24:29;;;;;;;0.20;0.20;;;;;;;11.26;56.58;100465.69;4473836;31;34130;-88
2023/01/14 11:27:02;;;;;;;0.17;0.17;;;;;;;11.28;57.61;100455.91;4471801;31;33544;-88
2023/01/14 11:29:31;;;;;;;;;;;;;;;11.47;57.33;100446.38;4492735;31;34612;-87
2023/01/14 11:32:07;;;;;;;0.62;0.62;;;;;;;11.37;56.70;100465.28;4476884;31;33031;-87
2023/01/14 11:34:50;;;;;;;0.88;0.88;;;;;;;11.26;57.58;100457.75;4473676;31;31998;-87
2023/01/14 11:37:36;;;;;;;2.78;0.68;;;;;;;11.68;55.05;100454.41;4466674;31;33556;-87
2023/01/14 11:40:22;;;;;;;0.22;0.15;;;;;;;11.43;57.29;100446.56;4464508;31;33757;-88
2023/01/14 11:42:51;;;;;;;2.55;1.25;;;;;;;11.35;56.81;100446.00;4473624;31;34394;-87
2023/01/14 11:45:22;;;;;;;0.43;0.22;;;;;;;11.28;58.04;100446.19;4479746;31;33881;-87
2023/01/14 11:47:57;;;;;;;0.50;0.50;;;;;;;11.21;56.47;100454.41;4472030;31;33262;-87
2023/01/14 11:50:36;;;;;;;3.10;0.62;;;;;;;11.59;56.23;100449.50;4472988;31;32647;-88
2023/01/14 11:53:16;;;;;;;0.08;0.08;;;;;;;11.61;57.44;100447.66;4469848;31;33938;-87
2023/01/14 11:55:51;;;;;;;0.32;0.20;;;;;;;11.68;56.27;100442.09;4460143;31;33191;-87
2023/01/14 11:58:29;;;;;;;1.17;0.77;;;;;;;11.89;54.77;100436.91;4468640;31;33837;-87
2023/01/14 12:01:04;;;;;;;0.88;0.88;;;;;;;11.98;54.18;100431.25;4469015;31;33966;-87
2023/01/14 12:03:48;;;;;;;0.20;0.20;;;;;;;12.35;52.96;100435.09;4472005;31;32308;-87
2023/01/14 12:06:31;;;;;;;0.30;0.30;;;;;;;12.46;53.12;100425.75;4482090;31;35490;-87
2023/01/14 12:09:10;;;;;;;0.00;0.00;;;;;;;12.44;52.32;100429.41;4481514;31;33361;-87
2023/01/14 12:11:50;;;;;;;0.10;0.10;;;;;;;12.52;51.90;100428.16;4457603;31;34207;-87
2023/01/14 12:17:22;;;;;;;1.80;0.35;;;;;;;11.54;55.00;100431.16;4472851;31;33699;-88
2023/01/14 12:19:58;;;;;;;0.37;0.37;;;;;;;11.91;53.92;100425.34;4474156;31;33140;-86
2023/01/14 12:22:32;;;;;;;0.15;0.00;;;;;;;11.82;53.38;100424.78;4474631;31;33395;-86
2023/01/14 12:28:01;;;;;;;2.53;0.85;;;;;;;12.16;52.77;100425.25;4470643;31;33208;-86
2023/01/14 12:30:59;;;;;;;0.20;0.20;;;;;;;12.32;52.02;100420.19;4477844;31;32316;-86
2023/01/14 12:33:41;;;;;;;3.00;0.75;;;;;;;12.54;51.19;100405.12;4475121;31;32794;-86
2023/01/14 12:36:20;;;;;;;0.52;0.52;;;;;;;12.09;52.68;100413.16;4447860;32;34414;-86
2023/01/14 12:47:59;;;;;;;4.75;0.80;;;;;;;12.01;52.04;100392.31;4449322;32;31847;-85